Main page
METAR-TAF:

METAR-TAF

Airports :

Córdoba Airport

Córdoba, Spain

latitude: 37-51N, longitude: 004-51W, elevation: 90 m

Current weather observation

The report was made 26 minutes ago, at 15:30 UTC
Wind 6 kt from the West, varying between West/Southwest and North/Northwest
Temperature 22°C
Humidity 43%
Pressure 1012 hPa
Visibility 10 km or more
Few clouds at a height of 4000 ft

METAR: LEBA 201530Z 28006KT 240V340 9999 FEW040 22/09 Q1012

Time: 17:56 (15:56 UTC)

Forecast

The report was made 1 hour and 56 minutes ago, at 14:00 UTC
Forecast valid from 20 at 15 UTC to 21 at 15 UTC
Wind 10 kt from the West
Visibility 10 km or more
Scattered clouds at a height of 3500 ft
Becoming
from 20 at 17 UTC to 20 at 19 UTC
Wind 5 kt from the North/Northwest
Becoming
from 21 at 10 UTC to 21 at 12 UTC
Wind 10 kt from the West

TAF: LEBA 201400Z 2015/2115 27010KT 9999 SCT035 TX25/2015Z TN10/2106Z BECMG 2017/2019 33005KT BECMG 2110/2112 27010KT

Weather observations and forecasts of more than 4000 airports (METAR and TAF reports).

The available stations are represented by yellow and red dots on the map.

Hover mouse over dot to see the name of the station.

Then click to see weather observations and forecasts.

To change the map : click on the green buttons with a black cross to zoom in, on the green button with a dash to zoom out, or on the green arrows for adjacent maps.


METAR-TAF: